createdAt,value
2022-08-17T00:02:26.502Z,55.81
2022-08-17T00:05:30.679Z,56.02
2022-08-17T00:08:37.864Z,55.95
2022-08-17T00:11:43.784Z,56.28
2022-08-17T00:15:10.715Z,55.77
2022-08-17T00:19:01.091Z,56.04
2022-08-17T00:22:30.795Z,56.45
2022-08-17T00:25:03.234Z,56.75
2022-08-17T00:28:06.533Z,56.63
2022-08-17T00:31:11.013Z,56.46
2022-08-17T00:34:13.942Z,56.50
2022-08-17T00:37:16.711Z,56.59
2022-08-17T00:40:21.559Z,56.83
2022-08-17T00:43:32.295Z,56.79
2022-08-17T00:46:37.805Z,57.19
2022-08-17T00:49:40.749Z,57.11
2022-08-17T00:52:47.059Z,57.27
2022-08-17T00:55:51.234Z,57.51
2022-08-17T00:58:55.651Z,57.58
2022-08-17T01:01:59.272Z,57.57
2022-08-17T01:05:02.309Z,57.73
2022-08-17T01:08:05.667Z,57.65
2022-08-17T01:11:10.250Z,57.85
2022-08-17T01:14:13.345Z,58.12
2022-08-17T01:17:16.000Z,58.53
2022-08-17T01:20:19.232Z,58.38
2022-08-17T01:23:23.743Z,58.20
2022-08-17T01:26:30.227Z,58.28
2022-08-17T01:29:33.894Z,58.20
2022-08-17T01:32:37.093Z,58.61
2022-08-17T01:35:47.158Z,59.09
2022-08-17T01:38:52.194Z,59.15
2022-08-17T01:41:57.417Z,59.25
2022-08-17T01:45:04.653Z,59.63
2022-08-17T01:48:08.740Z,59.30
2022-08-17T01:51:11.611Z,59.47
2022-08-17T01:54:20.371Z,59.51
2022-08-17T01:57:25.496Z,59.79
2022-08-17T02:00:59.870Z,60.25
2022-08-17T02:04:00.926Z,60.38
2022-08-17T02:07:04.392Z,59.88
2022-08-17T02:10:19.833Z,59.80
2022-08-17T02:13:29.645Z,59.50
2022-08-17T02:16:37.703Z,59.56
2022-08-17T02:19:41.850Z,59.28
2022-08-17T02:22:46.822Z,59.28
2022-08-17T02:25:51.142Z,59.25
2022-08-17T02:28:55.365Z,59.29
2022-08-17T02:32:02.243Z,59.47
2022-08-17T02:35:09.620Z,59.46
2022-08-17T02:38:12.419Z,59.54
2022-08-17T02:41:18.802Z,59.95
2022-08-17T02:44:39.758Z,59.93
2022-08-17T02:47:48.404Z,60.32
2022-08-17T02:50:51.309Z,60.27
2022-08-17T02:54:02.205Z,60.56
2022-08-17T02:57:20.945Z,60.54
2022-08-17T03:00:26.985Z,60.85
2022-08-17T03:03:29.653Z,60.67
2022-08-17T03:06:33.990Z,61.08
2022-08-17T03:09:38.010Z,60.77
2022-08-17T03:12:44.641Z,61.15
2022-08-17T03:15:50.724Z,60.48
2022-08-17T03:18:55.012Z,60.34
2022-08-17T03:22:01.398Z,60.12
2022-08-17T03:25:27.638Z,60.30
2022-08-17T03:28:33.588Z,60.86
2022-08-17T03:31:37.021Z,60.90
2022-08-17T03:34:40.123Z,60.54
2022-08-17T03:37:43.995Z,60.71
2022-08-17T03:40:57.603Z,60.81
2022-08-17T03:44:06.472Z,60.92
2022-08-17T03:47:40.949Z,61.33
2022-08-17T03:51:09.332Z,61.08
2022-08-17T03:54:38.609Z,61.34
2022-08-17T03:57:48.920Z,62.58
2022-08-17T04:00:53.002Z,62.32
2022-08-17T04:03:55.645Z,62.17
2022-08-17T04:07:02.377Z,62.55
2022-08-17T04:10:05.498Z,62.80
2022-08-17T04:13:10.073Z,63.41
2022-08-17T04:16:15.709Z,63.04
2022-08-17T04:19:18.686Z,62.88
2022-08-17T04:22:31.882Z,62.33
2022-08-17T04:25:39.035Z,62.44
2022-08-17T04:28:42.277Z,62.69
2022-08-17T04:31:46.273Z,62.70
2022-08-17T04:34:49.828Z,62.35
2022-08-17T04:37:53.850Z,61.95
2022-08-17T04:41:15.405Z,61.46
2022-08-17T04:44:37.139Z,61.53
2022-08-17T04:47:42.782Z,61.89
2022-08-17T04:50:46.819Z,61.36
2022-08-17T04:54:09.841Z,61.36
2022-08-17T04:57:12.705Z,61.19
2022-08-17T05:00:16.164Z,60.00
2022-08-17T05:03:20.884Z,59.83
2022-08-17T05:06:27.071Z,59.85
2022-08-17T05:09:30.454Z,59.32
2022-08-17T05:12:34.497Z,59.12
2022-08-17T05:15:39.289Z,59.41
2022-08-17T05:18:50.308Z,59.17
2022-08-17T05:21:53.045Z,58.69
2022-08-17T05:24:55.800Z,58.81
2022-08-17T05:27:59.439Z,58.45
2022-08-17T05:31:05.135Z,58.35
2022-08-17T05:34:09.085Z,58.03
2022-08-17T05:37:14.613Z,58.13
2022-08-17T05:40:18.343Z,57.75
2022-08-17T05:43:24.080Z,57.90
2022-08-17T05:46:29.528Z,57.80
2022-08-17T05:49:34.268Z,56.80
2022-08-17T05:52:43.823Z,56.04
2022-08-17T05:55:51.748Z,55.19
2022-08-17T05:59:02.150Z,54.60
2022-08-17T06:02:10.625Z,54.08
2022-08-17T06:05:34.856Z,53.64
2022-08-17T06:08:44.666Z,53.59
2022-08-17T06:11:53.443Z,52.97
2022-08-17T06:15:07.511Z,53.79
2022-08-17T06:18:17.202Z,54.12
2022-08-17T06:21:24.030Z,53.98
2022-08-17T06:24:39.451Z,53.61
2022-08-17T06:27:46.470Z,52.45
2022-08-17T06:30:58.382Z,52.04
2022-08-17T06:34:06.037Z,51.74
2022-08-17T06:37:21.424Z,52.26
2022-08-17T06:40:48.250Z,51.76
2022-08-17T06:43:58.593Z,50.51
2022-08-17T06:47:08.064Z,48.85
2022-08-17T06:50:17.028Z,46.92
2022-08-17T06:53:26.817Z,44.69
2022-08-17T06:56:53.313Z,43.77
2022-08-17T07:00:00.850Z,43.33
2022-08-17T07:03:11.259Z,42.51
2022-08-17T07:06:17.495Z,41.94
2022-08-17T07:09:26.972Z,41.94
2022-08-17T07:12:38.937Z,41.95
2022-08-17T07:15:43.316Z,41.78
2022-08-17T07:18:50.634Z,41.00
2022-08-17T07:22:01.726Z,40.62
2022-08-17T07:25:09.478Z,40.31
2022-08-17T07:28:13.040Z,40.24
2022-08-17T07:31:17.661Z,38.79
2022-08-17T07:34:20.410Z,39.10
2022-08-17T07:37:23.252Z,38.83
2022-08-17T07:40:32.159Z,38.60
2022-08-17T07:43:36.971Z,38.07
2022-08-17T07:47:07.020Z,37.96
2022-08-17T07:50:26.143Z,38.08
2022-08-17T07:53:31.170Z,38.44
2022-08-17T07:56:42.548Z,39.08
2022-08-17T08:00:16.286Z,38.59
2022-08-17T08:03:27.057Z,38.43
2022-08-17T08:06:29.857Z,38.11
2022-08-17T08:09:34.397Z,38.01
2022-08-17T08:12:41.128Z,37.30
2022-08-17T08:15:54.186Z,37.59
2022-08-17T08:18:59.816Z,37.54
2022-08-17T08:22:07.795Z,36.84
2022-08-17T08:25:22.261Z,36.25
2022-08-17T08:28:31.451Z,36.21
2022-08-17T08:31:47.810Z,36.91
2022-08-17T08:35:02.961Z,37.23
2022-08-17T08:38:11.935Z,36.91
2022-08-17T08:41:24.628Z,36.11
2022-08-17T08:45:01.177Z,35.89
2022-08-17T08:48:23.186Z,36.32
2022-08-17T08:51:41.834Z,36.61
2022-08-17T08:54:49.777Z,37.26
2022-08-17T08:57:58.892Z,37.35
2022-08-17T09:01:06.125Z,37.32
2022-08-17T09:04:25.198Z,37.23
2022-08-17T09:07:36.498Z,37.37
2022-08-17T09:11:01.220Z,37.36
2022-08-17T09:14:21.193Z,37.44
2022-08-17T09:17:34.995Z,38.14
2022-08-17T09:20:46.621Z,39.06
2022-08-17T09:24:02.337Z,38.54
2022-08-17T09:27:08.139Z,38.32
2022-08-17T09:30:12.903Z,38.51
2022-08-17T09:33:22.889Z,39.22
2022-08-17T09:36:29.230Z,40.01
2022-08-17T09:39:35.794Z,40.74
2022-08-17T09:42:45.485Z,41.10
2022-08-17T09:45:51.677Z,41.86
2022-08-17T09:48:59.356Z,42.61
2022-08-17T09:52:07.453Z,42.57
2022-08-17T09:55:10.804Z,42.88
2022-08-17T09:58:18.948Z,42.67
2022-08-17T10:01:31.360Z,42.32
2022-08-17T10:04:44.552Z,41.31
2022-08-17T10:07:52.601Z,40.59
2022-08-17T10:11:06.809Z,40.10
2022-08-17T10:14:37.457Z,41.25
2022-08-17T10:17:40.615Z,40.78
2022-08-17T10:20:48.519Z,38.83
2022-08-17T10:24:13.348Z,38.50
2022-08-17T10:27:19.119Z,38.26
2022-08-17T10:30:24.611Z,38.32
2022-08-17T10:33:33.490Z,37.54
2022-08-17T10:36:46.087Z,37.49
2022-08-17T10:39:57.356Z,36.53
2022-08-17T10:43:05.882Z,35.75
2022-08-17T10:46:31.122Z,35.01
2022-08-17T10:49:35.774Z,34.56
2022-08-17T10:52:50.027Z,35.74
2022-08-17T10:56:26.724Z,37.63
2022-08-17T10:59:51.650Z,37.78
2022-08-17T11:02:55.093Z,37.22
2022-08-17T11:06:03.130Z,38.01
2022-08-17T11:09:26.243Z,38.65
2022-08-17T11:12:32.457Z,39.50
2022-08-17T11:15:46.161Z,39.68
2022-08-17T11:19:09.878Z,39.85
2022-08-17T11:22:57.806Z,40.88
2022-08-17T11:26:08.334Z,41.07
2022-08-17T11:29:25.287Z,42.11
2022-08-17T11:32:38.330Z,42.08
2022-08-17T11:35:52.881Z,42.55
2022-08-17T11:39:00.860Z,42.96
2022-08-17T11:42:07.279Z,43.26
2022-08-17T11:45:31.813Z,43.11
2022-08-17T11:49:05.763Z,43.45
2022-08-17T11:52:36.062Z,42.74
2022-08-17T11:56:05.019Z,42.16
2022-08-17T11:59:41.919Z,42.81
2022-08-17T12:02:48.836Z,41.69
2022-08-17T12:06:01.788Z,40.92
2022-08-17T12:09:11.766Z,39.73
2022-08-17T12:12:15.606Z,39.50
2022-08-17T12:15:20.362Z,38.62
2022-08-17T12:18:28.712Z,36.68
2022-08-17T12:21:43.635Z,34.44
2022-08-17T12:24:51.506Z,33.20
2022-08-17T12:28:05.308Z,32.94
2022-08-17T12:31:23.347Z,32.24
2022-08-17T12:34:29.277Z,31.76
2022-08-17T12:37:33.744Z,30.18
2022-08-17T12:40:36.530Z,31.91
2022-08-17T12:43:39.215Z,33.30
2022-08-17T12:46:51.469Z,33.96
2022-08-17T12:50:08.178Z,35.41
2022-08-17T12:53:35.094Z,34.85
2022-08-17T12:56:38.105Z,34.53
2022-08-17T12:59:43.678Z,33.24
2022-08-17T13:02:50.699Z,30.92
2022-08-17T13:06:00.608Z,26.77
2022-08-17T13:09:10.326Z,19.60
2022-08-17T13:12:12.930Z,15.38
2022-08-17T13:15:21.269Z,15.49
2022-08-17T13:18:39.825Z,13.46
2022-08-17T13:21:47.912Z,13.06
2022-08-17T13:24:54.338Z,14.58
2022-08-17T13:27:57.478Z,13.08
2022-08-17T13:31:21.889Z,13.66
2022-08-17T13:34:48.974Z,12.92
2022-08-17T13:38:06.803Z,10.51
2022-08-17T13:41:09.488Z,8.95
2022-08-17T13:44:36.974Z,9.80
2022-08-17T13:47:41.310Z,8.84
2022-08-17T13:50:46.391Z,8.41
2022-08-17T13:53:55.335Z,9.13
2022-08-17T13:57:07.861Z,10.88
2022-08-17T14:00:17.498Z,9.76
2022-08-17T14:03:21.268Z,8.90
2022-08-17T14:06:51.838Z,8.81
2022-08-17T14:09:50.830Z,10.94
2022-08-17T14:12:53.928Z,11.50
2022-08-17T14:15:56.876Z,11.23
2022-08-17T14:18:59.718Z,11.40
2022-08-17T14:22:02.554Z,10.83
2022-08-17T14:25:08.701Z,9.45
2022-08-17T14:28:13.460Z,9.64
2022-08-17T14:31:16.040Z,8.82
2022-08-17T14:34:18.926Z,9.71
2022-08-17T14:37:26.280Z,12.56
2022-08-17T14:40:30.248Z,13.72
2022-08-17T14:43:34.443Z,12.20
2022-08-17T14:46:36.994Z,11.24
2022-08-17T14:49:39.593Z,10.39
2022-08-17T14:52:42.612Z,12.24
2022-08-17T14:55:47.244Z,13.67
2022-08-17T14:58:51.838Z,13.83
2022-08-17T15:01:55.901Z,12.83
2022-08-17T15:05:02.554Z,13.95
2022-08-17T15:08:05.912Z,14.78
2022-08-17T15:11:12.998Z,15.90
2022-08-17T15:14:17.187Z,17.63
2022-08-17T15:17:19.865Z,18.40
2022-08-17T15:20:27.540Z,18.14
2022-08-17T15:23:30.158Z,17.73
2022-08-17T15:26:34.266Z,16.72
2022-08-17T15:29:36.887Z,15.94
2022-08-17T15:32:50.819Z,13.70
2022-08-17T15:35:59.055Z,11.81
2022-08-17T15:39:01.665Z,10.78
2022-08-17T15:42:06.082Z,9.64
2022-08-17T15:45:11.487Z,9.81
2022-08-17T15:48:15.214Z,10.45
2022-08-17T15:51:20.681Z,12.81
2022-08-17T15:54:24.114Z,15.92
2022-08-17T15:57:28.768Z,18.89
2022-08-17T16:00:39.802Z,20.83
2022-08-17T16:04:03.772Z,21.40
2022-08-17T16:07:07.599Z,22.14
2022-08-17T16:10:14.177Z,23.67
2022-08-17T16:13:22.568Z,24.22
2022-08-17T16:16:26.074Z,24.05
2022-08-17T16:19:28.828Z,25.37
2022-08-17T16:22:33.621Z,25.48
2022-08-17T16:25:38.438Z,25.95
2022-08-17T16:28:58.431Z,25.89
2022-08-17T16:32:08.632Z,25.85
2022-08-17T16:35:14.318Z,26.03
2022-08-17T16:38:17.152Z,26.41
2022-08-17T16:41:33.679Z,26.96
2022-08-17T16:44:37.733Z,27.31
2022-08-17T16:47:41.764Z,27.73
2022-08-17T16:51:03.600Z,28.51
2022-08-17T16:54:07.234Z,28.84
2022-08-17T16:57:10.023Z,29.03
2022-08-17T17:00:15.947Z,29.50
2022-08-17T17:03:21.155Z,30.45
2022-08-17T17:06:29.410Z,31.33
2022-08-17T17:09:36.574Z,31.64
2022-08-17T17:13:01.985Z,32.42
2022-08-17T17:16:14.100Z,32.77
2022-08-17T17:19:35.270Z,33.48
2022-08-17T17:22:48.103Z,33.78
2022-08-17T17:25:55.694Z,34.29
2022-08-17T17:29:07.976Z,34.27
2022-08-17T17:32:20.882Z,34.79
2022-08-17T17:35:26.550Z,35.19
2022-08-17T17:38:33.041Z,35.32
2022-08-17T17:41:41.577Z,35.93
2022-08-17T17:44:46.165Z,35.58
2022-08-17T17:47:54.393Z,36.60
2022-08-17T17:51:13.890Z,37.63
2022-08-17T17:54:47.565Z,38.27
2022-08-17T17:57:59.085Z,38.91
2022-08-17T18:01:14.061Z,39.31
2022-08-17T18:04:23.278Z,39.59
2022-08-17T18:07:32.248Z,39.69
2022-08-17T18:10:44.972Z,40.12
2022-08-17T18:14:02.920Z,40.68
2022-08-17T18:17:07.626Z,41.13
2022-08-17T18:20:11.631Z,41.46
2022-08-17T18:23:14.449Z,41.84
2022-08-17T18:26:36.926Z,42.19
2022-08-17T18:29:44.368Z,42.57
2022-08-17T18:32:47.314Z,42.79
2022-08-17T18:35:59.444Z,43.03
2022-08-17T18:39:11.574Z,44.08
2022-08-17T18:42:26.152Z,44.04
2022-08-17T18:45:34.282Z,44.94
2022-08-17T18:48:52.716Z,45.64
2022-08-17T18:52:12.963Z,46.31
2022-08-17T18:55:21.566Z,46.61
2022-08-17T18:58:26.470Z,46.81
2022-08-17T19:01:52.214Z,46.92
2022-08-17T19:05:08.371Z,46.72
2022-08-17T19:08:22.964Z,47.19
2022-08-17T19:11:29.089Z,47.45
2022-08-17T19:14:32.086Z,47.83
2022-08-17T19:17:42.506Z,47.84
2022-08-17T19:20:49.129Z,47.49
2022-08-17T19:23:59.031Z,47.73
2022-08-17T19:27:14.502Z,48.52
2022-08-17T19:30:17.890Z,48.52
2022-08-17T19:33:20.590Z,48.66
2022-08-17T19:36:37.735Z,48.96
2022-08-17T19:39:45.493Z,49.12
2022-08-17T19:42:54.126Z,49.35
2022-08-17T19:46:05.878Z,49.18
2022-08-17T19:49:14.544Z,49.33
2022-08-17T19:52:32.019Z,49.92
2022-08-17T19:55:44.859Z,50.50
2022-08-17T19:58:57.972Z,50.65
2022-08-17T20:02:04.146Z,50.29
2022-08-17T20:05:11.551Z,50.36
2022-08-17T20:08:18.744Z,50.55
2022-08-17T20:11:29.115Z,51.03
2022-08-17T20:14:36.049Z,51.49
2022-08-17T20:17:42.120Z,51.21
2022-08-17T20:20:50.147Z,51.15
2022-08-17T20:24:01.219Z,50.99
2022-08-17T20:27:14.403Z,51.83
2022-08-17T20:30:33.045Z,52.07
2022-08-17T20:33:38.617Z,52.69
2022-08-17T20:36:58.953Z,52.97
2022-08-17T20:40:22.145Z,53.08
2022-08-17T20:43:51.095Z,52.93
2022-08-17T20:46:58.095Z,52.85
2022-08-17T20:50:03.158Z,52.99
2022-08-17T20:53:08.605Z,52.67
2022-08-17T20:56:11.782Z,52.40
2022-08-17T21:02:44.661Z,51.59
2022-08-17T21:06:00.081Z,51.68
2022-08-17T21:09:30.222Z,50.98
2022-08-17T21:12:44.684Z,51.71
2022-08-17T21:15:51.699Z,51.05
2022-08-17T21:19:05.107Z,51.15
2022-08-17T21:22:17.887Z,50.87
2022-08-17T21:25:32.384Z,50.92
2022-08-17T21:29:00.929Z,51.21
2022-08-17T21:32:24.229Z,51.12
2022-08-17T21:35:31.581Z,51.02
2022-08-17T21:38:44.996Z,51.53
2022-08-17T21:41:52.829Z,51.14
2022-08-17T21:44:58.965Z,51.02
2022-08-17T21:48:12.664Z,51.06
2022-08-17T21:51:20.616Z,51.04
2022-08-17T21:54:33.896Z,51.72
2022-08-17T21:57:52.796Z,51.87
2022-08-17T22:01:14.735Z,52.99
2022-08-17T22:04:20.782Z,53.04
2022-08-17T22:07:35.875Z,53.86
2022-08-17T22:10:41.285Z,54.49
2022-08-17T22:13:44.253Z,54.60
2022-08-17T22:16:46.730Z,55.51
2022-08-17T22:19:52.703Z,56.01
2022-08-17T22:23:29.476Z,55.34
2022-08-17T22:27:01.666Z,56.45
2022-08-17T22:30:18.661Z,57.51
2022-08-17T22:33:40.920Z,59.80
2022-08-17T22:36:43.784Z,60.46
2022-08-17T22:39:58.637Z,59.26
2022-08-17T22:43:03.342Z,58.45
2022-08-17T22:46:08.575Z,58.64
2022-08-17T22:49:11.324Z,58.18
2022-08-17T22:52:32.078Z,58.31
2022-08-17T22:55:53.968Z,58.28
2022-08-17T22:59:17.072Z,59.12
2022-08-17T23:02:23.863Z,59.53
2022-08-17T23:05:26.820Z,60.56
2022-08-17T23:08:29.576Z,62.16
2022-08-17T23:11:48.810Z,62.86
2022-08-17T23:15:00.546Z,64.98
2022-08-17T23:18:05.274Z,67.10
2022-08-17T23:21:08.229Z,68.06
2022-08-17T23:24:10.961Z,68.60
2022-08-17T23:27:14.956Z,69.53
2022-08-17T23:30:17.862Z,70.27
2022-08-17T23:33:22.883Z,71.21
2022-08-17T23:36:27.038Z,71.60
2022-08-17T23:39:30.208Z,71.72
2022-08-17T23:42:34.844Z,71.61
2022-08-17T23:45:38.721Z,71.77
2022-08-17T23:48:42.037Z,71.47
2022-08-17T23:51:45.686Z,70.71
2022-08-17T23:54:48.648Z,71.08
2022-08-17T23:57:53.043Z,70.72
